Sainte-Thecle, Canada
Current Conditions -  °F | °C
As of 8:00 PM on Friday 19 Dec 2014 (Local Time) from CYRQ Reporting Station
Clear Clear  
Wind Chill:   Ceiling: Unl
Heat Index:   Visibility: 9mi
Dew Point:   Wind: 2mph
Humidity: 92%   Direction: 180°S
Pressure: 30.19"   Gusts: NA
Location:  46.8°N, 72.5°W
Report Text: CYRQ 200100Z AUTO 18002KT 9SM CLR M13/M14 A3019 RMK SLP229
Loading
Personal Weather Stations






























Interactive Weather Map New forecast layout! Learn more

10-Day Weather Forecast

Advertisements
Track Severe Weather on mobile